createdAt,value
2022-11-05T00:01:08.376Z,90.36
2022-11-05T00:03:28.932Z,90.22
2022-11-05T00:05:50.241Z,90.05
2022-11-05T00:08:12.229Z,89.74
2022-11-05T00:10:20.137Z,89.94
2022-11-05T00:12:40.601Z,90.20
2022-11-05T00:15:00.928Z,90.71
2022-11-05T00:17:03.547Z,90.43
2022-11-05T00:19:10.094Z,90.46
2022-11-05T00:21:26.729Z,90.25
2022-11-05T00:23:48.128Z,90.47
2022-11-05T00:25:58.283Z,91.51
2022-11-05T00:28:03.245Z,91.47
2022-11-05T00:30:07.155Z,91.88
2022-11-05T00:32:09.810Z,91.72
2022-11-05T00:34:12.463Z,91.54
2022-11-05T00:36:15.112Z,91.85
2022-11-05T00:38:17.757Z,92.01
2022-11-05T00:40:21.736Z,92.10
2022-11-05T00:42:42.165Z,91.88
2022-11-05T00:45:02.376Z,92.24
2022-11-05T00:47:19.035Z,91.89
2022-11-05T00:49:33.528Z,91.62
2022-11-05T00:51:36.212Z,91.50
2022-11-05T00:53:38.835Z,90.98
2022-11-05T00:55:44.772Z,91.36
2022-11-05T00:57:46.457Z,91.13
2022-11-05T00:59:49.099Z,90.62
2022-11-05T01:01:51.861Z,90.69
2022-11-05T01:03:54.637Z,90.99
2022-11-05T01:05:59.704Z,91.15
2022-11-05T01:08:02.676Z,91.24
2022-11-05T01:10:06.015Z,91.35
2022-11-05T01:12:10.000Z,91.80
2022-11-05T01:14:15.938Z,91.43
2022-11-05T01:16:18.582Z,91.61
2022-11-05T01:18:23.078Z,91.62
2022-11-05T01:20:25.751Z,92.01
2022-11-05T01:22:28.426Z,92.00
2022-11-05T01:24:31.104Z,91.34
2022-11-05T01:26:33.817Z,91.43
2022-11-05T01:28:37.979Z,91.82
2022-11-05T01:30:40.716Z,92.24
2022-11-05T01:32:43.683Z,92.28
2022-11-05T01:34:46.334Z,92.36
2022-11-05T01:36:49.308Z,92.68
2022-11-05T01:38:51.919Z,92.44
2022-11-05T01:40:54.546Z,92.89
2022-11-05T01:42:57.272Z,92.71
2022-11-05T01:45:04.215Z,92.99
2022-11-05T01:47:06.892Z,92.46
2022-11-05T01:49:17.239Z,92.60
2022-11-05T01:51:23.397Z,92.26
2022-11-05T01:53:31.536Z,92.48
2022-11-05T01:55:37.790Z,92.48
2022-11-05T01:57:40.496Z,92.54
2022-11-05T01:59:48.154Z,92.55
2022-11-05T02:01:53.017Z,92.51
2022-11-05T02:04:00.838Z,92.62
2022-11-05T02:06:04.806Z,92.39
2022-11-05T02:08:10.191Z,92.13
2022-11-05T02:10:14.832Z,92.49
2022-11-05T02:12:17.569Z,92.44
2022-11-05T02:14:20.829Z,92.64
2022-11-05T02:16:36.661Z,92.32
2022-11-05T02:18:54.205Z,92.49
2022-11-05T02:21:15.312Z,92.52
2022-11-05T02:23:47.624Z,92.62
2022-11-05T02:26:14.950Z,92.76
2022-11-05T02:28:40.746Z,92.75
2022-11-05T02:30:47.749Z,92.97
2022-11-05T02:33:36.769Z,92.72
2022-11-05T02:36:00.279Z,92.58
2022-11-05T02:38:09.672Z,93.00
2022-11-05T02:40:20.705Z,92.88
2022-11-05T02:42:32.410Z,93.29
2022-11-05T02:44:42.588Z,93.08
2022-11-05T02:46:55.280Z,93.21
2022-11-05T02:49:05.828Z,93.35
2022-11-05T02:51:17.685Z,92.78
2022-11-05T02:53:26.190Z,92.63
2022-11-05T02:55:35.241Z,92.83
2022-11-05T02:57:38.139Z,92.89
2022-11-05T02:59:40.788Z,93.34
2022-11-05T03:01:46.756Z,93.07
2022-11-05T03:03:54.629Z,92.92
2022-11-05T03:06:12.798Z,92.72
2022-11-05T03:08:24.550Z,93.01
2022-11-05T03:10:38.372Z,93.20
2022-11-05T03:12:52.281Z,93.05
2022-11-05T03:15:02.069Z,92.89
2022-11-05T03:17:11.085Z,92.43
2022-11-05T03:19:21.573Z,92.14
2022-11-05T03:21:31.059Z,92.17
2022-11-05T03:23:42.542Z,91.66
2022-11-05T03:25:50.437Z,92.01
2022-11-05T03:27:57.462Z,92.20
2022-11-05T03:30:02.977Z,91.87
2022-11-05T03:32:08.643Z,92.11
2022-11-05T03:34:13.613Z,92.26
2022-11-05T03:36:23.283Z,92.39
2022-11-05T03:38:29.154Z,92.30
2022-11-05T03:40:36.190Z,92.78
2022-11-05T03:42:45.747Z,92.90
2022-11-05T03:44:53.830Z,92.74
2022-11-05T03:47:02.387Z,92.90
2022-11-05T03:49:09.146Z,92.87
2022-11-05T03:51:17.518Z,93.21
2022-11-05T03:53:26.414Z,93.12
2022-11-05T03:55:35.249Z,93.00
2022-11-05T03:57:42.924Z,92.81
2022-11-05T03:59:47.525Z,93.36
2022-11-05T04:01:51.117Z,93.36
2022-11-05T04:03:54.016Z,93.20
2022-11-05T04:06:13.887Z,93.24
2022-11-05T04:08:36.348Z,92.84
2022-11-05T04:10:59.862Z,92.93
2022-11-05T04:13:19.968Z,92.77
2022-11-05T04:15:22.641Z,92.99
2022-11-05T04:17:24.432Z,92.97
2022-11-05T04:19:41.035Z,92.58
2022-11-05T04:22:01.475Z,92.70
2022-11-05T04:24:10.178Z,93.00
2022-11-05T04:26:14.221Z,92.95
2022-11-05T04:28:17.171Z,92.29
2022-11-05T04:33:14.402Z,92.41
2022-11-05T04:35:17.581Z,92.69
2022-11-05T04:37:20.514Z,92.70
2022-11-05T04:39:23.147Z,92.59
2022-11-05T04:41:27.548Z,92.38
2022-11-05T04:43:30.295Z,92.69
2022-11-05T04:45:35.246Z,92.48
2022-11-05T04:47:37.904Z,92.86
2022-11-05T04:49:40.570Z,92.61
2022-11-05T04:51:43.443Z,92.42
2022-11-05T04:53:46.267Z,92.55
2022-11-05T04:55:48.989Z,92.69
2022-11-05T04:57:54.068Z,92.52
2022-11-05T04:59:56.760Z,92.94
2022-11-05T05:01:59.484Z,92.45
2022-11-05T05:04:02.207Z,92.56
2022-11-05T05:06:04.955Z,92.66
2022-11-05T05:08:07.844Z,92.45
2022-11-05T05:10:11.840Z,92.58
2022-11-05T05:12:14.498Z,92.72
2022-11-05T05:14:18.535Z,92.80
2022-11-05T05:16:23.208Z,92.59
2022-11-05T05:18:26.841Z,92.82
2022-11-05T05:20:47.148Z,92.50
2022-11-05T05:22:53.953Z,92.71
2022-11-05T05:24:57.245Z,92.44
2022-11-05T05:26:59.976Z,92.85
2022-11-05T05:29:06.773Z,92.92
2022-11-05T05:31:10.820Z,93.66
2022-11-05T05:33:13.548Z,93.13
2022-11-05T05:35:16.908Z,93.46
2022-11-05T05:37:20.984Z,93.53
2022-11-05T05:39:23.675Z,93.23
2022-11-05T05:41:26.348Z,92.85
2022-11-05T05:43:31.215Z,93.27
2022-11-05T05:45:36.310Z,93.18
2022-11-05T05:47:40.350Z,92.91
2022-11-05T05:49:43.032Z,93.35
2022-11-05T05:51:45.683Z,93.22
2022-11-05T05:53:48.388Z,93.26
2022-11-05T05:55:51.040Z,93.09
2022-11-05T05:57:54.720Z,92.97
2022-11-05T05:59:57.345Z,92.86
2022-11-05T06:02:00.550Z,92.88
2022-11-05T06:04:04.983Z,92.97
2022-11-05T06:06:09.888Z,93.11
2022-11-05T06:08:12.572Z,92.91
2022-11-05T06:10:15.317Z,93.26
2022-11-05T06:12:18.103Z,93.01
2022-11-05T06:14:20.746Z,93.23
2022-11-05T06:16:23.383Z,93.20
2022-11-05T06:18:26.105Z,92.88
2022-11-05T06:20:30.086Z,93.31
2022-11-05T06:22:32.712Z,93.24
2022-11-05T06:24:35.376Z,93.28
2022-11-05T06:26:42.659Z,93.01
2022-11-05T06:28:45.711Z,93.24
2022-11-05T06:30:51.653Z,92.91
2022-11-05T06:32:54.497Z,92.74
2022-11-05T06:34:57.207Z,92.99
2022-11-05T06:37:01.195Z,93.10
2022-11-05T06:39:03.892Z,92.99
2022-11-05T06:41:10.276Z,92.86
2022-11-05T06:43:13.861Z,93.01
2022-11-05T06:45:17.419Z,92.60
2022-11-05T06:47:20.629Z,92.59
2022-11-05T06:49:24.606Z,92.70
2022-11-05T06:51:27.286Z,92.91
2022-11-05T06:53:32.013Z,92.51
2022-11-05T06:55:34.712Z,92.08
2022-11-05T06:57:39.400Z,92.23
2022-11-05T06:59:42.398Z,92.33
2022-11-05T07:01:45.211Z,92.09
2022-11-05T07:03:48.975Z,92.29
2022-11-05T07:05:52.164Z,92.38
2022-11-05T07:07:54.857Z,92.38
2022-11-05T07:09:58.916Z,92.75
2022-11-05T07:12:01.537Z,92.53
2022-11-05T07:14:04.248Z,92.49
2022-11-05T07:16:07.285Z,92.62
2022-11-05T07:18:09.993Z,92.77
2022-11-05T07:20:13.411Z,92.05
2022-11-05T07:22:16.060Z,91.84
2022-11-05T07:24:18.731Z,90.86
2022-11-05T07:26:22.743Z,91.14
2022-11-05T07:28:25.411Z,91.55
2022-11-05T07:30:29.047Z,92.70
2022-11-05T07:32:31.740Z,90.63
2022-11-05T07:34:34.463Z,90.19
2022-11-05T07:36:39.381Z,90.83
2022-11-05T07:38:42.092Z,90.48
2022-11-05T07:40:44.723Z,89.08
2022-11-05T07:42:50.648Z,89.65
2022-11-05T07:44:53.414Z,89.68
2022-11-05T07:46:56.073Z,89.40
2022-11-05T07:48:58.755Z,89.18
2022-11-05T07:51:01.401Z,89.01
2022-11-05T07:53:06.086Z,88.41
2022-11-05T07:55:09.671Z,89.43
2022-11-05T07:57:12.436Z,88.59
2022-11-05T07:59:16.435Z,89.29
2022-11-05T08:01:19.641Z,89.38
2022-11-05T08:03:22.580Z,90.47
2022-11-05T08:05:25.408Z,87.90
2022-11-05T08:07:29.100Z,87.68
2022-11-05T08:09:31.767Z,87.59
2022-11-05T08:11:35.830Z,88.92
2022-11-05T08:13:39.380Z,88.92
2022-11-05T08:15:43.699Z,89.27
2022-11-05T08:17:46.469Z,88.01
2022-11-05T08:19:49.213Z,88.91
2022-11-05T08:21:51.924Z,88.25
2022-11-05T08:23:54.577Z,88.29
2022-11-05T08:25:57.912Z,88.29
2022-11-05T08:28:01.724Z,88.52
2022-11-05T08:30:05.143Z,89.00
2022-11-05T08:32:09.195Z,88.86
2022-11-05T08:34:11.919Z,89.05
2022-11-05T08:36:14.736Z,88.35
2022-11-05T08:38:19.506Z,88.25
2022-11-05T08:40:22.192Z,88.13
2022-11-05T08:42:24.854Z,87.97
2022-11-05T08:44:27.545Z,86.90
2022-11-05T08:46:30.223Z,87.20
2022-11-05T08:48:34.303Z,86.96
2022-11-05T08:50:38.147Z,86.19
2022-11-05T08:52:41.193Z,86.75
2022-11-05T08:54:44.535Z,86.41
2022-11-05T08:56:47.194Z,86.54
2022-11-05T08:58:49.960Z,85.93
2022-11-05T09:00:52.664Z,86.09
2022-11-05T09:02:55.503Z,86.55
2022-11-05T09:04:59.493Z,85.70
2022-11-05T09:07:02.147Z,85.99
2022-11-05T09:09:05.004Z,85.11
2022-11-05T09:11:07.656Z,84.55
2022-11-05T09:13:17.879Z,84.50
2022-11-05T09:15:23.176Z,83.51
2022-11-05T09:17:25.911Z,83.42
2022-11-05T09:19:28.569Z,83.81
2022-11-05T09:21:32.587Z,84.03
2022-11-05T09:23:35.239Z,84.41
2022-11-05T09:25:38.195Z,84.47
2022-11-05T09:27:40.841Z,83.52
2022-11-05T09:29:43.627Z,83.87
2022-11-05T09:31:46.235Z,84.78
2022-11-05T09:33:49.009Z,83.47
2022-11-05T09:35:52.797Z,82.61
2022-11-05T09:38:00.785Z,81.65
2022-11-05T09:40:04.341Z,81.93
2022-11-05T09:42:09.936Z,82.25
2022-11-05T09:44:16.995Z,81.76
2022-11-05T09:46:24.340Z,82.33
2022-11-05T09:48:31.780Z,82.14
2022-11-05T09:50:40.235Z,81.33
2022-11-05T09:52:42.879Z,81.43
2022-11-05T09:54:48.632Z,80.79
2022-11-05T09:56:52.779Z,80.74
2022-11-05T09:59:00.176Z,80.64
2022-11-05T10:01:05.365Z,81.22
2022-11-05T10:03:13.219Z,80.92
2022-11-05T10:05:18.186Z,79.54
2022-11-05T10:07:23.815Z,79.53
2022-11-05T10:09:34.302Z,79.12
2022-11-05T10:11:42.543Z,79.65
2022-11-05T10:13:48.221Z,79.69
2022-11-05T10:15:58.927Z,78.56
2022-11-05T10:18:06.885Z,77.63
2022-11-05T10:20:18.425Z,78.95
2022-11-05T10:22:21.522Z,77.53
2022-11-05T10:24:24.222Z,78.11
2022-11-05T10:26:29.101Z,77.97
2022-11-05T10:28:35.258Z,77.04
2022-11-05T10:30:38.278Z,77.67
2022-11-05T10:32:43.751Z,77.82
2022-11-05T10:34:46.550Z,76.41
2022-11-05T10:36:49.591Z,77.28
2022-11-05T10:38:52.623Z,77.48
2022-11-05T10:41:04.066Z,77.19
2022-11-05T10:43:11.667Z,76.94
2022-11-05T10:45:26.600Z,76.49
2022-11-05T10:47:41.763Z,76.16
2022-11-05T10:49:55.816Z,77.14
2022-11-05T10:52:00.917Z,75.79
2022-11-05T10:54:11.767Z,76.24
2022-11-05T10:56:35.248Z,76.30
2022-11-05T10:58:42.051Z,75.08
2022-11-05T11:00:46.642Z,75.75
2022-11-05T11:02:51.635Z,77.05
2022-11-05T11:04:55.277Z,74.65
2022-11-05T11:07:00.782Z,75.07
2022-11-05T11:09:07.004Z,75.06
2022-11-05T11:11:14.114Z,74.22
2022-11-05T11:13:21.679Z,73.46
2022-11-05T11:15:27.579Z,73.38
2022-11-05T11:17:33.338Z,74.10
2022-11-05T11:19:37.451Z,74.46
2022-11-05T11:21:41.652Z,75.40
2022-11-05T11:23:53.957Z,75.76
2022-11-05T11:26:02.235Z,75.42
2022-11-05T11:28:07.651Z,75.22
2022-11-05T11:30:19.471Z,75.90
2022-11-05T11:32:22.914Z,74.35
2022-11-05T11:34:31.318Z,74.98
2022-11-05T11:36:37.009Z,75.05
2022-11-05T11:38:41.308Z,74.89
2022-11-05T11:40:44.083Z,73.35
2022-11-05T11:42:50.084Z,72.21
2022-11-05T11:44:53.322Z,72.52
2022-11-05T11:46:58.276Z,73.19
2022-11-05T11:49:01.618Z,73.12
2022-11-05T11:51:30.279Z,72.94
2022-11-05T11:53:35.852Z,73.44
2022-11-05T11:55:38.515Z,73.10
2022-11-05T11:57:45.333Z,73.39
2022-11-05T12:00:07.717Z,72.97
2022-11-05T12:02:48.497Z,72.74
2022-11-05T12:05:05.390Z,72.77
2022-11-05T12:07:23.732Z,71.44
2022-11-05T12:09:41.128Z,72.09
2022-11-05T12:11:51.748Z,71.24
2022-11-05T12:14:04.374Z,71.52
2022-11-05T12:16:15.675Z,70.88
2022-11-05T12:18:26.624Z,71.47
2022-11-05T12:20:40.338Z,71.66
2022-11-05T12:23:03.331Z,71.17
2022-11-05T12:25:24.524Z,71.49
2022-11-05T12:27:41.373Z,71.39
2022-11-05T12:29:58.557Z,71.54
2022-11-05T12:32:18.371Z,72.05
2022-11-05T12:34:36.846Z,71.30
2022-11-05T12:36:56.964Z,71.03
2022-11-05T12:39:26.802Z,71.39
2022-11-05T12:41:34.878Z,71.25
2022-11-05T12:43:50.460Z,71.76
2022-11-05T12:46:01.496Z,72.25
2022-11-05T12:48:18.678Z,72.81
2022-11-05T12:50:29.672Z,72.98
2022-11-05T12:53:00.274Z,72.45
2022-11-05T12:55:10.155Z,73.14
2022-11-05T12:57:15.184Z,72.33
2022-11-05T12:59:23.901Z,72.13
2022-11-05T13:01:34.991Z,73.44
2022-11-05T13:03:44.268Z,73.41
2022-11-05T13:05:50.227Z,71.59
2022-11-05T13:07:58.112Z,69.67
2022-11-05T13:10:06.040Z,69.24
2022-11-05T13:12:13.956Z,70.44
2022-11-05T13:14:21.472Z,70.22
2022-11-05T13:16:28.474Z,68.69
2022-11-05T13:18:38.272Z,66.75
2022-11-05T13:20:45.860Z,67.44
2022-11-05T13:22:53.673Z,66.90
2022-11-05T13:25:00.330Z,69.05
2022-11-05T13:27:07.683Z,71.22
2022-11-05T13:29:18.995Z,71.56
2022-11-05T13:31:26.015Z,72.21
2022-11-05T13:33:33.240Z,72.96
2022-11-05T13:35:42.521Z,72.97
2022-11-05T13:38:09.615Z,71.02
2022-11-05T13:40:16.199Z,65.73
2022-11-05T13:42:59.998Z,64.32
2022-11-05T13:45:31.100Z,66.85
2022-11-05T13:47:49.448Z,68.85
2022-11-05T13:50:19.853Z,71.20
2022-11-05T13:52:46.307Z,74.66
2022-11-05T13:55:27.354Z,78.74
2022-11-05T13:57:45.956Z,80.04
2022-11-05T14:00:03.432Z,82.48
2022-11-05T14:02:16.080Z,83.69
2022-11-05T14:04:29.543Z,83.69
2022-11-05T14:06:34.288Z,82.67
2022-11-05T14:08:41.347Z,83.81
2022-11-05T14:10:46.852Z,84.27
2022-11-05T14:12:52.838Z,84.25
2022-11-05T14:15:01.986Z,84.30
2022-11-05T14:17:28.349Z,84.75
2022-11-05T14:19:35.623Z,84.67
2022-11-05T14:21:50.185Z,84.31
2022-11-05T14:23:54.344Z,83.51
2022-11-05T14:25:59.672Z,81.90
2022-11-05T14:28:02.381Z,80.27
2022-11-05T14:30:40.908Z,81.63
2022-11-05T14:32:49.980Z,78.68
2022-11-05T14:34:57.104Z,81.15
2022-11-05T14:37:36.976Z,81.92
2022-11-05T14:39:40.283Z,81.02
2022-11-05T14:41:54.408Z,80.93
2022-11-05T14:44:00.412Z,80.33
2022-11-05T14:46:06.145Z,81.32
2022-11-05T14:48:35.281Z,79.72
2022-11-05T14:50:40.686Z,81.25
2022-11-05T14:52:52.887Z,80.80
2022-11-05T14:54:57.687Z,80.35
2022-11-05T14:57:02.441Z,82.55
2022-11-05T14:59:34.036Z,81.80
2022-11-05T15:01:56.040Z,81.30
2022-11-05T15:04:17.975Z,82.30
2022-11-05T15:06:27.499Z,84.47
2022-11-05T15:08:38.209Z,84.64
2022-11-05T15:10:42.885Z,83.06
2022-11-05T15:12:48.650Z,83.62
2022-11-05T15:14:58.505Z,84.06
2022-11-05T15:17:13.366Z,84.00
2022-11-05T15:19:23.872Z,84.85
2022-11-05T15:21:28.381Z,84.72
2022-11-05T15:23:40.002Z,85.18
2022-11-05T15:25:52.962Z,85.23
2022-11-05T15:28:04.491Z,85.44
2022-11-05T15:30:15.753Z,85.76
2022-11-05T15:32:20.272Z,85.59
2022-11-05T15:34:28.883Z,85.65
2022-11-05T15:36:32.542Z,85.59
2022-11-05T15:38:36.221Z,85.92
2022-11-05T15:40:38.837Z,86.04
2022-11-05T15:42:41.446Z,86.41
2022-11-05T15:44:45.299Z,85.79
2022-11-05T15:46:47.949Z,86.45
2022-11-05T15:48:52.845Z,87.00
2022-11-05T15:50:57.360Z,87.19
2022-11-05T15:53:28.309Z,87.82
2022-11-05T15:55:24.631Z,87.71
2022-11-05T15:57:30.304Z,87.38
2022-11-05T15:59:35.019Z,87.68
2022-11-05T16:01:46.395Z,87.59
2022-11-05T16:03:49.411Z,87.98
2022-11-05T16:05:53.412Z,87.78
2022-11-05T16:07:59.360Z,87.75
2022-11-05T16:10:08.588Z,88.34
2022-11-05T16:12:24.401Z,92.64
2022-11-05T16:14:35.845Z,92.70
2022-11-05T16:16:38.801Z,91.84
2022-11-05T16:18:42.967Z,90.00
2022-11-05T16:21:00.599Z,85.12
2022-11-05T16:23:07.126Z,84.41
2022-11-05T16:25:28.297Z,84.68
2022-11-05T16:27:30.945Z,85.82
2022-11-05T16:29:35.760Z,86.52
2022-11-05T16:31:39.039Z,86.77
2022-11-05T16:33:46.320Z,86.85
2022-11-05T16:35:50.640Z,87.90
2022-11-05T16:37:53.613Z,88.54
2022-11-05T16:39:57.612Z,88.26
2022-11-05T16:42:00.641Z,88.51
2022-11-05T16:44:03.310Z,88.87
2022-11-05T16:46:06.246Z,88.53
2022-11-05T16:48:11.102Z,88.63
2022-11-05T16:50:17.318Z,89.01
2022-11-05T16:52:20.070Z,88.39
2022-11-05T16:54:22.666Z,89.10
2022-11-05T16:56:27.271Z,89.98
2022-11-05T16:58:30.080Z,88.94
2022-11-05T17:00:33.136Z,88.77
2022-11-05T17:02:35.939Z,88.63
2022-11-05T17:04:38.667Z,89.17
2022-11-05T17:06:41.355Z,88.33
2022-11-05T17:08:45.169Z,90.28
2022-11-05T17:10:47.904Z,88.89
2022-11-05T17:12:52.196Z,88.61
2022-11-05T17:14:54.829Z,88.81
2022-11-05T17:16:57.501Z,89.14
2022-11-05T17:19:00.282Z,88.93
2022-11-05T17:21:02.934Z,89.05
2022-11-05T17:23:06.448Z,88.73
2022-11-05T17:25:09.856Z,89.16
2022-11-05T17:27:12.519Z,89.26
2022-11-05T17:29:16.826Z,88.69
2022-11-05T17:31:19.648Z,88.98
2022-11-05T17:33:23.641Z,88.87
2022-11-05T17:35:27.107Z,88.86
2022-11-05T17:37:29.754Z,89.19
2022-11-05T17:39:32.459Z,89.35
2022-11-05T17:41:35.083Z,89.04
2022-11-05T17:43:37.767Z,89.19
2022-11-05T17:45:47.101Z,88.47
2022-11-05T17:47:49.768Z,88.54
2022-11-05T17:49:52.405Z,88.86
2022-11-05T17:51:55.047Z,89.12
2022-11-05T17:53:57.711Z,88.64
2022-11-05T17:56:00.345Z,88.78
2022-11-05T17:58:03.003Z,88.86
2022-11-05T18:00:06.756Z,88.46
2022-11-05T18:02:12.626Z,88.59
2022-11-05T18:04:15.376Z,88.77
2022-11-05T18:06:18.027Z,89.24
2022-11-05T18:08:20.722Z,88.99
2022-11-05T18:10:24.486Z,88.50
2022-11-05T18:12:27.172Z,88.79
2022-11-05T18:14:29.769Z,88.90
2022-11-05T18:16:32.552Z,89.15
2022-11-05T18:18:36.525Z,89.27
2022-11-05T18:20:39.610Z,89.13
2022-11-05T18:22:43.263Z,89.87
2022-11-05T18:24:45.962Z,90.21
2022-11-05T18:26:48.883Z,90.75
2022-11-05T18:28:51.482Z,91.03
2022-11-05T18:30:54.084Z,91.54
2022-11-05T18:32:56.727Z,91.88
2022-11-05T18:35:00.683Z,92.19
2022-11-05T18:37:03.443Z,92.07
2022-11-05T18:39:06.760Z,91.93
2022-11-05T18:41:09.650Z,91.99
2022-11-05T18:43:12.821Z,92.08
2022-11-05T18:45:15.642Z,91.61
2022-11-05T18:47:18.332Z,91.28
2022-11-05T18:49:21.115Z,91.33
2022-11-05T18:51:25.092Z,90.98
2022-11-05T18:53:28.477Z,90.91
2022-11-05T18:55:31.109Z,91.19
2022-11-05T18:57:34.481Z,91.09
2022-11-05T18:59:39.037Z,90.69
2022-11-05T19:01:42.528Z,90.88
2022-11-05T19:03:45.758Z,90.47
2022-11-05T19:05:48.367Z,90.79
2022-11-05T19:07:52.399Z,90.48
2022-11-05T19:09:55.036Z,90.85
2022-11-05T19:11:57.656Z,91.33
2022-11-05T19:14:00.299Z,91.32
2022-11-05T19:16:02.992Z,91.71
2022-11-05T19:18:05.648Z,91.58
2022-11-05T19:20:10.080Z,91.59
2022-11-05T19:22:12.784Z,91.55
2022-11-05T19:24:17.272Z,91.60
2022-11-05T19:26:28.133Z,91.58
2022-11-05T19:28:31.400Z,91.35
2022-11-05T19:30:34.069Z,91.46
2022-11-05T19:32:36.699Z,91.02
2022-11-05T19:34:39.403Z,91.09
2022-11-05T19:36:42.963Z,90.75
2022-11-05T19:38:45.664Z,90.71
2022-11-05T19:40:49.677Z,91.03
2022-11-05T19:42:52.319Z,91.27
2022-11-05T19:44:55.034Z,91.26
2022-11-05T19:46:57.733Z,90.94
2022-11-05T19:49:01.060Z,91.01
2022-11-05T19:51:07.961Z,91.46
2022-11-05T19:53:10.960Z,91.32
2022-11-05T19:55:13.564Z,91.59
2022-11-05T19:57:17.768Z,92.05
2022-11-05T19:59:21.010Z,92.13
2022-11-05T20:01:25.677Z,91.88
2022-11-05T20:03:28.660Z,91.62
2022-11-05T20:05:31.335Z,91.54
2022-11-05T20:07:34.087Z,91.85
2022-11-05T20:09:37.016Z,91.64
2022-11-05T20:11:40.153Z,91.30
2022-11-05T20:13:44.213Z,91.69
2022-11-05T20:15:46.875Z,91.79
2022-11-05T20:17:51.146Z,91.40
2022-11-05T20:19:54.144Z,91.37
2022-11-05T20:22:00.185Z,91.28
2022-11-05T20:24:02.996Z,90.86
2022-11-05T20:26:07.492Z,90.94
2022-11-05T20:28:10.704Z,90.95
2022-11-05T20:30:15.127Z,90.96
2022-11-05T20:32:17.757Z,91.16
2022-11-05T20:34:20.492Z,90.71
2022-11-05T20:36:25.472Z,91.03
2022-11-05T20:38:28.127Z,92.27
2022-11-05T20:40:30.781Z,91.97
2022-11-05T20:42:33.504Z,92.50
2022-11-05T20:44:36.206Z,92.35
2022-11-05T20:46:40.640Z,92.04
2022-11-05T20:48:43.671Z,91.77
2022-11-05T20:50:46.853Z,92.16
2022-11-05T20:52:49.537Z,92.25
2022-11-05T20:54:52.178Z,92.44
2022-11-05T20:56:54.878Z,91.69
2022-11-05T20:58:58.876Z,92.46
2022-11-05T21:01:01.547Z,92.36
2022-11-05T21:03:06.475Z,92.33
2022-11-05T21:05:09.758Z,92.80
2022-11-05T21:07:12.520Z,92.36
2022-11-05T21:09:15.163Z,92.71
2022-11-05T21:11:18.344Z,92.88
2022-11-05T21:13:22.020Z,93.19
2022-11-05T21:15:24.710Z,93.45
2022-11-05T21:17:27.486Z,93.20
2022-11-05T21:19:34.240Z,93.18
2022-11-05T21:21:40.889Z,93.06
2022-11-05T21:23:43.981Z,93.13
2022-11-05T21:25:47.246Z,93.54
2022-11-05T21:27:49.967Z,93.11
2022-11-05T21:29:52.621Z,93.48
2022-11-05T21:31:55.274Z,93.15
2022-11-05T21:33:57.936Z,93.24
2022-11-05T21:36:09.106Z,92.92
2022-11-05T21:38:12.393Z,92.98
2022-11-05T21:40:15.254Z,93.17
2022-11-05T21:42:17.982Z,92.86
2022-11-05T21:44:20.618Z,93.21
2022-11-05T21:46:23.300Z,93.02
2022-11-05T21:48:25.952Z,93.41
2022-11-05T21:50:42.546Z,93.38
2022-11-05T21:53:04.149Z,93.11
2022-11-05T21:55:24.602Z,92.84
2022-11-05T21:57:44.925Z,93.11
2022-11-05T21:59:51.828Z,92.95
2022-11-05T22:02:01.379Z,92.88
2022-11-05T22:04:04.499Z,93.03
2022-11-05T22:06:07.514Z,92.63
2022-11-05T22:08:11.823Z,93.11
2022-11-05T22:10:16.500Z,92.70
2022-11-05T22:12:19.465Z,93.01
2022-11-05T22:14:22.656Z,92.91
2022-11-05T22:16:25.295Z,93.58
2022-11-05T22:18:28.085Z,93.44
2022-11-05T22:20:30.793Z,93.11
2022-11-05T22:22:33.902Z,93.28
2022-11-05T22:24:38.749Z,93.53
2022-11-05T22:26:42.225Z,93.17
2022-11-05T22:28:44.896Z,93.31
2022-11-05T22:30:47.524Z,93.17
2022-11-05T22:32:50.151Z,93.39
2022-11-05T22:34:52.860Z,93.18
2022-11-05T22:36:55.552Z,93.70
2022-11-05T22:38:58.194Z,93.51
2022-11-05T22:41:08.015Z,93.98
2022-11-05T22:43:10.662Z,94.15
2022-11-05T22:45:13.319Z,93.89
2022-11-05T22:47:18.933Z,94.06
2022-11-05T22:49:21.948Z,94.54
2022-11-05T22:51:26.457Z,94.35
2022-11-05T22:53:29.175Z,94.28
2022-11-05T22:55:31.959Z,94.74
2022-11-05T22:57:35.946Z,94.33
2022-11-05T22:59:38.614Z,94.78
2022-11-05T23:01:42.220Z,94.70
2022-11-05T23:03:46.604Z,94.64
2022-11-05T23:05:57.629Z,95.22
2022-11-05T23:08:17.679Z,95.14
2022-11-05T23:10:37.875Z,95.19
2022-11-05T23:12:43.593Z,95.22
2022-11-05T23:14:46.338Z,95.24
2022-11-05T23:17:09.920Z,95.34
2022-11-05T23:19:30.706Z,95.48
2022-11-05T23:21:50.717Z,95.73
2022-11-05T23:24:05.494Z,95.48
2022-11-05T23:26:22.066Z,95.68
2022-11-05T23:28:26.091Z,95.94
2022-11-05T23:30:29.306Z,95.60
2022-11-05T23:32:32.441Z,95.62
2022-11-05T23:34:35.130Z,95.78
2022-11-05T23:36:55.296Z,95.75
2022-11-05T23:38:58.031Z,95.72
2022-11-05T23:41:19.120Z,95.60
2022-11-05T23:43:39.498Z,95.59
2022-11-05T23:46:02.900Z,95.62
2022-11-05T23:48:17.820Z,95.13
2022-11-05T23:50:20.489Z,95.30
2022-11-05T23:52:23.132Z,95.46
2022-11-05T23:54:25.802Z,95.29
2022-11-05T23:56:28.453Z,95.11
2022-11-05T23:58:31.162Z,95.42
